createdAt,value
2018-07-24T00:00:16.579Z,24.63
2018-07-24T00:02:45.019Z,23.70
2018-07-24T00:05:13.510Z,22.40
2018-07-24T00:07:42.304Z,26.43
2018-07-24T00:10:10.907Z,24.40
2018-07-24T00:12:39.364Z,24.50
2018-07-24T00:15:07.861Z,24.90
2018-07-24T00:17:36.342Z,22.77
2018-07-24T00:20:05.421Z,27.23
2018-07-24T00:22:33.879Z,27.07
2018-07-24T00:25:02.400Z,22.90
2018-07-24T00:27:30.811Z,23.10
2018-07-24T00:29:59.460Z,25.60
2018-07-24T00:32:27.884Z,23.57
2018-07-24T00:34:56.367Z,23.80
2018-07-24T00:37:24.767Z,27.20
2018-07-24T00:39:53.190Z,30.20
2018-07-24T00:42:21.687Z,28.20
2018-07-24T00:44:50.189Z,25.20
2018-07-24T00:47:18.696Z,24.10
2018-07-24T00:49:47.131Z,24.80
2018-07-24T00:52:15.566Z,26.03
2018-07-24T00:54:44.051Z,24.67
2018-07-24T00:57:12.523Z,25.23
2018-07-24T00:59:40.956Z,24.10
2018-07-24T01:02:12.819Z,25.90
2018-07-24T01:04:41.446Z,24.67
2018-07-24T01:07:09.912Z,30.60
2018-07-24T01:09:38.399Z,25.07
2018-07-24T01:12:06.990Z,30.83
2018-07-24T01:14:35.457Z,27.63
2018-07-24T01:17:04.032Z,27.50
2018-07-24T01:19:32.447Z,32.10
2018-07-24T01:22:00.863Z,25.03
2018-07-24T01:24:29.295Z,29.03
2018-07-24T01:26:57.820Z,27.80
2018-07-24T01:29:26.275Z,26.70
2018-07-24T01:31:54.718Z,29.33
2018-07-24T01:34:23.170Z,30.50
2018-07-24T01:36:51.695Z,28.73
2018-07-24T01:39:20.215Z,36.93
2018-07-24T01:41:48.633Z,27.77
2018-07-24T01:44:17.151Z,34.17
2018-07-24T01:46:45.576Z,25.10
2018-07-24T01:49:14.004Z,25.77
2018-07-24T01:51:42.439Z,24.90
2018-07-24T01:54:10.875Z,26.60
2018-07-24T01:56:39.320Z,29.83
2018-07-24T01:59:07.811Z,26.50
2018-07-24T02:01:36.255Z,28.27
2018-07-24T02:04:04.691Z,28.50
2018-07-24T02:06:33.131Z,26.23
2018-07-24T02:09:01.554Z,28.10
2018-07-24T02:11:30.004Z,25.00
2018-07-24T02:13:58.443Z,26.77
2018-07-24T02:16:26.933Z,26.23
2018-07-24T02:18:55.374Z,24.67
2018-07-24T02:21:23.868Z,25.87
2018-07-24T02:23:52.304Z,25.43
2018-07-24T02:26:20.759Z,26.13
2018-07-24T02:28:49.363Z,25.80
2018-07-24T02:31:17.777Z,30.23
2018-07-24T02:33:46.216Z,26.97
2018-07-24T02:36:14.639Z,26.90
2018-07-24T02:38:43.076Z,27.23
2018-07-24T02:41:11.510Z,29.10
2018-07-24T02:43:39.984Z,29.60
2018-07-24T02:46:08.456Z,27.97
2018-07-24T02:48:36.897Z,29.20
2018-07-24T02:51:05.312Z,34.13
2018-07-24T02:53:33.915Z,28.30
2018-07-24T02:56:02.351Z,28.60
2018-07-24T02:58:30.787Z,31.90
2018-07-24T03:00:59.220Z,27.17
2018-07-24T03:03:27.771Z,29.40
2018-07-24T03:05:56.225Z,28.47
2018-07-24T03:08:24.643Z,27.60
2018-07-24T03:10:53.086Z,26.10
2018-07-24T03:13:21.530Z,34.10
2018-07-24T03:15:49.982Z,27.70
2018-07-24T03:18:18.487Z,28.73
2018-07-24T03:20:46.942Z,29.03
2018-07-24T03:23:15.353Z,32.07
2018-07-24T03:25:43.796Z,31.50
2018-07-24T03:28:12.219Z,28.53
2018-07-24T03:30:40.672Z,29.53
2018-07-24T03:33:09.095Z,31.13
2018-07-24T03:35:37.642Z,29.40
2018-07-24T03:38:06.121Z,29.93
2018-07-24T03:40:34.682Z,28.73
2018-07-24T03:43:03.116Z,30.30
2018-07-24T03:45:31.546Z,34.50
2018-07-24T03:48:00.037Z,30.60
2018-07-24T03:50:28.499Z,30.03
2018-07-24T03:52:56.931Z,25.33
2018-07-24T03:55:25.387Z,28.70
2018-07-24T03:57:53.809Z,28.30
2018-07-24T04:00:22.337Z,30.70
2018-07-24T04:02:50.875Z,32.00
2018-07-24T04:05:19.487Z,26.10
2018-07-24T04:07:51.968Z,26.47
2018-07-24T04:10:21.715Z,27.63
2018-07-24T04:12:50.518Z,26.77
2018-07-24T04:15:18.952Z,33.30
2018-07-24T04:17:47.434Z,26.50
2018-07-24T04:20:15.911Z,28.93
2018-07-24T04:22:44.360Z,29.00
2018-07-24T04:25:12.868Z,31.73
2018-07-24T04:27:41.329Z,30.40
2018-07-24T04:30:09.758Z,30.57
2018-07-24T04:32:38.206Z,30.60
2018-07-24T04:35:06.665Z,29.17
2018-07-24T04:37:35.166Z,30.00
2018-07-24T04:40:03.768Z,32.53
2018-07-24T04:42:32.226Z,33.20
2018-07-24T04:45:00.671Z,29.67
2018-07-24T04:47:29.104Z,32.30
2018-07-24T04:49:57.563Z,33.40
2018-07-24T04:52:26.074Z,31.70
2018-07-24T04:54:54.664Z,30.80
2018-07-24T04:57:23.088Z,35.83
2018-07-24T04:59:51.554Z,32.07
2018-07-24T05:02:20.028Z,32.93
2018-07-24T05:04:48.612Z,37.80
2018-07-24T05:07:17.258Z,33.40
2018-07-24T05:09:45.771Z,36.07
2018-07-24T05:12:14.324Z,30.97
2018-07-24T05:14:42.771Z,39.70
2018-07-24T05:17:11.693Z,35.40
2018-07-24T05:19:40.335Z,36.10
2018-07-24T05:22:08.788Z,33.67
2018-07-24T05:24:37.262Z,36.63
2018-07-24T05:27:05.833Z,33.73
2018-07-24T05:29:34.246Z,37.33
2018-07-24T05:32:02.740Z,41.23
2018-07-24T05:34:31.180Z,34.83
2018-07-24T05:36:59.692Z,32.70
2018-07-24T05:39:28.133Z,33.47
2018-07-24T05:41:56.580Z,38.60
2018-07-24T05:44:25.052Z,34.50
2018-07-24T05:46:53.518Z,32.00
2018-07-24T05:49:21.983Z,32.03
2018-07-24T05:51:50.471Z,30.73
2018-07-24T05:54:18.907Z,30.10
2018-07-24T05:56:47.464Z,31.03
2018-07-24T05:59:15.916Z,29.53
2018-07-24T06:01:44.437Z,30.40
2018-07-24T06:04:12.921Z,32.73
2018-07-24T06:06:41.391Z,29.57
2018-07-24T06:09:10.429Z,29.23
2018-07-24T06:11:38.929Z,29.90
2018-07-24T06:14:07.386Z,28.23
2018-07-24T06:16:36.052Z,31.90
2018-07-24T06:19:04.508Z,27.77
2018-07-24T06:21:32.931Z,28.03
2018-07-24T06:24:01.423Z,28.87
2018-07-24T06:26:29.910Z,26.83
2018-07-24T06:28:58.358Z,28.70
2018-07-24T06:31:26.823Z,31.17
2018-07-24T06:33:55.282Z,27.03
2018-07-24T06:36:23.721Z,34.17
2018-07-24T06:38:52.174Z,33.47
2018-07-24T06:41:20.647Z,30.07
2018-07-24T06:43:49.101Z,31.13
2018-07-24T06:46:17.606Z,32.53
2018-07-24T06:48:46.055Z,28.30
2018-07-24T06:51:14.643Z,31.70
2018-07-24T06:53:43.040Z,26.60
2018-07-24T06:56:11.491Z,30.00
2018-07-24T06:58:39.980Z,27.70
2018-07-24T07:01:08.523Z,29.73
2018-07-24T07:03:37.607Z,32.37
2018-07-24T07:06:06.098Z,31.03
2018-07-24T07:08:34.547Z,27.80
2018-07-24T07:11:02.663Z,30.90
2018-07-24T07:13:31.232Z,44.23
2018-07-24T07:15:59.615Z,26.73
2018-07-24T07:18:28.327Z,27.13
2018-07-24T07:20:56.875Z,28.40
2018-07-24T07:23:25.402Z,30.97
2018-07-24T07:25:53.807Z,27.50
2018-07-24T07:28:22.248Z,26.77
2018-07-24T07:30:50.670Z,25.47
2018-07-24T07:33:19.127Z,23.47
2018-07-24T07:35:47.649Z,23.17
2018-07-24T07:38:16.100Z,22.10
2018-07-24T07:40:44.256Z,20.90
2018-07-24T07:43:12.717Z,32.03
2018-07-24T07:45:41.153Z,23.20
2018-07-24T07:48:09.607Z,22.33
2018-07-24T07:50:37.738Z,21.40
2018-07-24T07:53:06.412Z,21.70
2018-07-24T07:55:34.989Z,21.20
2018-07-24T07:58:03.453Z,22.73
2018-07-24T08:00:31.871Z,20.40
2018-07-24T08:03:00.352Z,21.10
2018-07-24T08:05:28.780Z,19.97
2018-07-24T08:07:57.215Z,17.90
2018-07-24T08:10:25.898Z,18.43
2018-07-24T08:12:54.339Z,16.50
2018-07-24T08:15:22.787Z,19.83
2018-07-24T08:17:51.220Z,16.60
2018-07-24T08:20:19.692Z,17.27
2018-07-24T08:22:48.254Z,16.40
2018-07-24T08:25:16.891Z,17.80
2018-07-24T08:27:45.334Z,16.83
2018-07-24T08:30:13.951Z,16.80
2018-07-24T08:32:42.109Z,18.50
2018-07-24T08:35:10.565Z,19.17
2018-07-24T08:37:38.979Z,16.97
2018-07-24T08:40:07.559Z,15.17
2018-07-24T08:42:35.984Z,15.50
2018-07-24T08:45:05.025Z,14.90
2018-07-24T08:47:33.479Z,12.17
2018-07-24T08:50:02.196Z,15.07
2018-07-24T08:52:30.755Z,13.17
2018-07-24T08:54:58.996Z,12.93
2018-07-24T08:57:27.263Z,16.30
2018-07-24T08:59:55.802Z,11.13
2018-07-24T09:02:24.360Z,12.30
2018-07-24T09:04:52.931Z,12.47
2018-07-24T09:07:22.269Z,12.93
2018-07-24T09:09:50.703Z,12.23
2018-07-24T09:12:19.172Z,10.63
2018-07-24T09:14:47.734Z,11.30
2018-07-24T09:17:16.162Z,9.80
2018-07-24T09:19:44.607Z,9.53
2018-07-24T09:22:13.030Z,9.60
2018-07-24T09:24:41.471Z,9.10
2018-07-24T09:27:09.605Z,8.93
2018-07-24T09:29:38.113Z,9.80
2018-07-24T09:32:06.593Z,8.97
2018-07-24T09:34:35.094Z,11.33
2018-07-24T09:37:03.524Z,9.53
2018-07-24T09:39:31.968Z,10.23
2018-07-24T09:42:00.387Z,9.83
2018-07-24T09:44:28.640Z,8.93
2018-07-24T09:46:57.083Z,9.10
2018-07-24T09:49:25.652Z,9.23
2018-07-24T09:51:54.215Z,11.43
2018-07-24T09:54:22.343Z,10.20
2018-07-24T09:56:50.775Z,8.43
2018-07-24T09:59:19.813Z,9.10
2018-07-24T10:01:48.316Z,8.73
2018-07-24T10:04:16.751Z,7.97
2018-07-24T10:06:45.219Z,8.50
2018-07-24T10:09:13.651Z,10.37
2018-07-24T10:11:42.167Z,10.07
2018-07-24T10:14:10.624Z,10.30
2018-07-24T10:16:38.878Z,9.97
2018-07-24T10:19:07.327Z,9.47
2018-07-24T10:21:35.771Z,8.73
2018-07-24T10:24:03.943Z,9.87
2018-07-24T10:26:32.045Z,8.73
2018-07-24T10:29:00.487Z,8.60
2018-07-24T10:31:28.602Z,8.47
2018-07-24T10:33:57.039Z,9.37
2018-07-24T10:36:25.301Z,8.90
2018-07-24T10:38:53.748Z,9.03
2018-07-24T10:41:22.227Z,8.70
2018-07-24T10:43:50.735Z,9.30
2018-07-24T10:46:19.377Z,8.70
2018-07-24T10:48:47.820Z,8.90
2018-07-24T10:51:16.264Z,8.13
2018-07-24T10:53:44.859Z,8.47
2018-07-24T10:56:13.373Z,8.30
2018-07-24T10:58:41.851Z,8.10
2018-07-24T11:01:10.385Z,8.97
2018-07-24T11:03:38.952Z,8.10
2018-07-24T11:06:07.423Z,8.07
2018-07-24T11:08:35.844Z,9.00
2018-07-24T11:11:04.404Z,8.37
2018-07-24T11:13:32.887Z,8.20
2018-07-24T11:16:01.333Z,8.17
2018-07-24T11:18:29.787Z,8.30
2018-07-24T11:20:58.296Z,9.77
2018-07-24T11:23:27.144Z,8.83
2018-07-24T11:25:55.290Z,8.70
2018-07-24T11:28:23.778Z,8.73
2018-07-24T11:30:52.226Z,8.80
2018-07-24T11:33:20.874Z,8.40
2018-07-24T11:35:49.651Z,8.63
2018-07-24T11:38:18.184Z,9.80
2018-07-24T11:40:46.688Z,9.97
2018-07-24T11:43:15.116Z,9.50
2018-07-24T11:45:44.531Z,9.43
2018-07-24T11:48:12.980Z,9.10
2018-07-24T11:50:41.400Z,9.57
2018-07-24T11:53:09.862Z,10.30
2018-07-24T11:55:38.462Z,9.53
2018-07-24T11:58:07.147Z,9.47
2018-07-24T12:00:35.606Z,9.43
2018-07-24T12:03:04.480Z,9.57
2018-07-24T12:05:32.935Z,9.63
2018-07-24T12:08:01.377Z,10.23
2018-07-24T12:10:29.971Z,9.07
2018-07-24T12:12:58.407Z,12.20
2018-07-24T12:15:26.852Z,9.50
2018-07-24T12:17:54.969Z,9.37
2018-07-24T12:20:23.418Z,9.93
2018-07-24T12:22:51.898Z,12.90
2018-07-24T12:25:20.146Z,10.17
2018-07-24T12:27:48.579Z,10.17
2018-07-24T12:30:17.071Z,10.00
2018-07-24T12:32:45.503Z,9.40
2018-07-24T12:35:13.943Z,9.20
2018-07-24T12:37:42.459Z,9.27
2018-07-24T12:40:10.917Z,8.80
2018-07-24T12:42:39.346Z,9.10
2018-07-24T12:45:07.785Z,12.33
2018-07-24T12:47:36.212Z,8.63
2018-07-24T12:50:04.723Z,8.83
2018-07-24T12:52:33.310Z,7.90
2018-07-24T12:55:01.690Z,8.60
2018-07-24T12:57:30.187Z,8.40
2018-07-24T12:59:58.684Z,9.03
2018-07-24T13:02:27.324Z,8.37
2018-07-24T13:04:55.781Z,7.87
2018-07-24T13:07:24.219Z,9.33
2018-07-24T13:09:53.429Z,9.80
2018-07-24T13:12:21.867Z,8.17
2018-07-24T13:14:50.315Z,7.50
2018-07-24T13:17:18.767Z,8.73
2018-07-24T13:19:47.285Z,8.67
2018-07-24T13:22:15.720Z,8.10
2018-07-24T13:24:44.554Z,8.23
2018-07-24T13:27:12.981Z,7.67
2018-07-24T13:29:41.431Z,8.10
2018-07-24T13:32:10.014Z,8.10
2018-07-24T13:34:38.389Z,8.43
2018-07-24T13:37:07.003Z,7.97
2018-07-24T13:39:35.431Z,8.43
2018-07-24T13:42:03.904Z,8.13
2018-07-24T13:44:32.343Z,9.80
2018-07-24T13:47:00.865Z,8.07
2018-07-24T13:49:29.393Z,7.77
2018-07-24T13:51:57.862Z,8.30
2018-07-24T13:54:26.306Z,7.57
2018-07-24T13:56:54.862Z,7.63
2018-07-24T13:59:23.324Z,8.27
2018-07-24T14:01:51.811Z,7.80
2018-07-24T14:04:20.230Z,7.47
2018-07-24T14:06:48.752Z,7.50
2018-07-24T14:09:17.196Z,8.40
2018-07-24T14:11:45.758Z,7.33
2018-07-24T14:14:14.350Z,8.57
2018-07-24T14:16:42.954Z,8.57
2018-07-24T14:19:11.407Z,7.43
2018-07-24T14:21:39.868Z,7.20
2018-07-24T14:24:08.463Z,7.00
2018-07-24T14:26:36.897Z,7.90
2018-07-24T14:29:05.347Z,8.63
2018-07-24T14:31:33.781Z,8.07
2018-07-24T14:34:02.216Z,7.63
2018-07-24T14:36:30.760Z,8.37
2018-07-24T14:38:59.235Z,7.87
2018-07-24T14:41:27.741Z,8.70
2018-07-24T14:43:56.172Z,8.23
2018-07-24T14:46:24.660Z,8.73
2018-07-24T14:48:53.093Z,8.20
2018-07-24T14:51:21.551Z,8.50
2018-07-24T14:53:50.083Z,7.50
2018-07-24T14:56:18.572Z,7.80
2018-07-24T14:58:47.057Z,7.80
2018-07-24T15:01:15.508Z,7.13
2018-07-24T15:03:43.949Z,7.40
2018-07-24T15:06:12.413Z,7.63
2018-07-24T15:08:40.845Z,7.43
2018-07-24T15:11:09.298Z,7.57
2018-07-24T15:13:37.774Z,8.00
2018-07-24T15:16:06.248Z,7.73
2018-07-24T15:18:34.693Z,8.63
2018-07-24T15:21:03.161Z,6.57
2018-07-24T15:23:31.724Z,7.80
2018-07-24T15:26:00.179Z,7.77
2018-07-24T15:28:28.651Z,7.97
2018-07-24T15:30:57.134Z,8.50
2018-07-24T15:33:25.632Z,7.77
2018-07-24T15:35:54.092Z,7.10
2018-07-24T15:38:22.552Z,8.50
2018-07-24T15:40:51.027Z,7.20
2018-07-24T15:43:19.479Z,7.83
2018-07-24T15:45:47.888Z,7.33
2018-07-24T15:48:16.355Z,7.83
2018-07-24T15:50:44.809Z,7.60
2018-07-24T15:53:13.235Z,7.47
2018-07-24T15:55:41.683Z,6.70
2018-07-24T15:58:10.111Z,6.97
2018-07-24T16:00:38.629Z,6.97
2018-07-24T16:03:07.250Z,7.47
2018-07-24T16:05:35.971Z,7.30
2018-07-24T16:08:04.523Z,6.80
2018-07-24T16:10:32.974Z,7.97
2018-07-24T16:13:01.550Z,6.90
2018-07-24T16:15:30.103Z,7.50
2018-07-24T16:17:58.672Z,7.60
2018-07-24T16:20:27.457Z,7.10
2018-07-24T16:22:55.874Z,7.10
2018-07-24T16:25:24.320Z,8.10
2018-07-24T16:27:52.790Z,7.30
2018-07-24T16:30:21.359Z,7.13
2018-07-24T16:32:49.787Z,7.87
2018-07-24T16:35:18.313Z,7.40
2018-07-24T16:37:46.945Z,7.07
2018-07-24T16:40:15.395Z,7.73
2018-07-24T16:42:43.979Z,8.07
2018-07-24T16:45:12.444Z,9.00
2018-07-24T16:47:41.011Z,9.93
2018-07-24T16:50:09.518Z,8.20
2018-07-24T16:52:38.015Z,7.83
2018-07-24T16:55:06.536Z,7.47
2018-07-24T16:57:35.017Z,6.80
2018-07-24T17:00:03.509Z,7.17
2018-07-24T17:02:32.111Z,7.30
2018-07-24T17:05:00.681Z,8.97
2018-07-24T17:07:29.152Z,7.07
2018-07-24T17:09:57.643Z,8.10
2018-07-24T17:12:26.114Z,6.90
2018-07-24T17:14:54.572Z,7.63
2018-07-24T17:17:23.095Z,9.40
2018-07-24T17:19:51.682Z,8.67
2018-07-24T17:22:20.049Z,8.20
2018-07-24T17:24:48.515Z,9.47
2018-07-24T17:27:17.002Z,7.80
2018-07-24T17:29:45.503Z,7.57
2018-07-24T17:32:13.955Z,7.53
2018-07-24T17:34:42.411Z,7.97
2018-07-24T17:37:10.976Z,9.77
2018-07-24T17:39:39.636Z,8.03
2018-07-24T17:42:08.156Z,8.37
2018-07-24T17:44:36.700Z,7.77
2018-07-24T17:47:05.114Z,7.53
2018-07-24T17:49:33.569Z,7.60
2018-07-24T17:52:02.007Z,7.63
2018-07-24T17:54:30.612Z,7.80
2018-07-24T17:56:59.097Z,8.00
2018-07-24T17:59:27.581Z,8.53
2018-07-24T18:01:56.146Z,9.90
2018-07-24T18:04:24.576Z,7.60
2018-07-24T18:06:53.139Z,7.63
2018-07-24T18:09:21.585Z,7.47
2018-07-24T18:11:50.131Z,8.17
2018-07-24T18:14:18.598Z,9.90
2018-07-24T18:16:47.078Z,7.73
2018-07-24T18:19:15.496Z,8.90
2018-07-24T18:21:43.933Z,7.97
2018-07-24T18:24:12.454Z,7.97
2018-07-24T18:26:40.941Z,7.40
2018-07-24T18:29:09.395Z,7.90
2018-07-24T18:31:37.984Z,8.33
2018-07-24T18:34:07.274Z,7.73
2018-07-24T18:36:35.760Z,7.93
2018-07-24T18:39:06.281Z,7.70
2018-07-24T18:41:34.896Z,9.63
2018-07-24T18:44:03.444Z,9.03
2018-07-24T18:46:31.883Z,8.90
2018-07-24T18:49:00.425Z,8.83
2018-07-24T18:51:28.928Z,8.87
2018-07-24T18:53:57.409Z,8.60
2018-07-24T18:56:25.870Z,9.67
2018-07-24T18:58:54.489Z,9.60
2018-07-24T19:01:23.034Z,9.60
2018-07-24T19:03:51.489Z,9.10
2018-07-24T19:06:19.940Z,9.37
2018-07-24T19:08:48.371Z,8.87
2018-07-24T19:11:16.903Z,9.77
2018-07-24T19:13:45.336Z,9.20
2018-07-24T19:16:13.999Z,8.70
2018-07-24T19:18:42.591Z,8.97
2018-07-24T19:21:11.295Z,8.43
2018-07-24T19:23:39.756Z,8.80
2018-07-24T19:26:08.415Z,9.50
2018-07-24T19:28:37.006Z,9.83
2018-07-24T19:31:05.717Z,10.80
2018-07-24T19:33:34.172Z,10.03
2018-07-24T19:36:02.624Z,9.57
2018-07-24T19:38:31.114Z,11.33
2018-07-24T19:40:59.574Z,9.73
2018-07-24T19:43:28.150Z,10.10
2018-07-24T19:45:56.718Z,10.03
2018-07-24T19:48:25.191Z,10.10
2018-07-24T19:50:53.736Z,9.60
2018-07-24T19:53:22.231Z,9.27
2018-07-24T19:55:50.674Z,9.93
2018-07-24T19:58:19.152Z,10.20
2018-07-24T20:00:47.672Z,9.80
2018-07-24T20:03:16.271Z,17.93
2018-07-24T20:05:44.709Z,10.93
2018-07-24T20:08:13.176Z,9.80
2018-07-24T20:10:41.859Z,8.47
2018-07-24T20:13:10.956Z,10.17
2018-07-24T20:15:39.560Z,9.73
2018-07-24T20:18:08.015Z,8.67
2018-07-24T20:20:36.489Z,10.27
2018-07-24T20:23:05.500Z,12.43
2018-07-24T20:25:33.979Z,8.57
2018-07-24T20:28:02.471Z,9.03
2018-07-24T20:30:30.984Z,9.97
2018-07-24T20:32:59.565Z,9.30
2018-07-24T20:35:28.065Z,9.73
2018-07-24T20:37:56.659Z,10.23
2018-07-24T20:40:25.310Z,10.50
2018-07-24T20:42:53.830Z,8.70
2018-07-24T20:45:22.344Z,10.13
2018-07-24T20:47:50.808Z,10.77
2018-07-24T20:50:19.292Z,11.53
2018-07-24T20:52:47.903Z,10.03
2018-07-24T20:55:16.371Z,10.40
2018-07-24T20:57:44.883Z,10.33
2018-07-24T21:00:13.396Z,10.10
2018-07-24T21:02:41.900Z,10.20
2018-07-24T21:05:10.516Z,10.00
2018-07-24T21:07:39.079Z,12.50
2018-07-24T21:10:12.925Z,10.07
2018-07-24T21:12:41.428Z,10.10
2018-07-24T21:15:10.012Z,10.30
2018-07-24T21:17:38.706Z,9.70
2018-07-24T21:20:07.383Z,10.30
2018-07-24T21:22:36.011Z,12.00
2018-07-24T21:25:04.697Z,16.77
2018-07-24T21:27:33.679Z,11.20
2018-07-24T21:30:02.184Z,11.17
2018-07-24T21:32:30.724Z,10.73
2018-07-24T21:34:59.326Z,11.70
2018-07-24T21:37:28.317Z,11.17
2018-07-24T21:39:56.876Z,11.73
2018-07-24T21:42:25.824Z,11.27
2018-07-24T21:44:54.387Z,11.80
2018-07-24T21:47:22.943Z,13.33
2018-07-24T21:49:51.883Z,12.33
2018-07-24T21:52:20.386Z,12.20
2018-07-24T21:54:48.934Z,12.33
2018-07-24T21:57:17.600Z,12.57
2018-07-24T21:59:46.065Z,11.53
2018-07-24T22:02:14.728Z,11.23
2018-07-24T22:04:44.310Z,11.37
2018-07-24T22:07:12.787Z,10.80
2018-07-24T22:09:41.300Z,12.20
2018-07-24T22:12:10.196Z,10.47
2018-07-24T22:14:38.824Z,10.93
2018-07-24T22:17:07.848Z,11.57
2018-07-24T22:19:36.628Z,11.60
2018-07-24T22:22:05.159Z,11.13
2018-07-24T22:24:33.718Z,11.10
2018-07-24T22:27:03.849Z,11.57
2018-07-24T22:29:32.322Z,11.27
2018-07-24T22:32:00.823Z,12.50
2018-07-24T22:34:29.615Z,11.97
2018-07-24T22:36:58.320Z,12.50
2018-07-24T22:39:26.828Z,13.43
2018-07-24T22:41:55.272Z,12.47
2018-07-24T22:44:23.843Z,11.93
2018-07-24T22:46:52.356Z,11.40
2018-07-24T22:49:20.802Z,12.77
2018-07-24T22:51:49.223Z,12.40
2018-07-24T22:54:17.687Z,12.07
2018-07-24T22:56:46.304Z,12.37
2018-07-24T22:59:14.815Z,13.10
2018-07-24T23:01:43.256Z,13.00
2018-07-24T23:04:11.767Z,13.00
2018-07-24T23:06:40.239Z,13.50
2018-07-24T23:09:10.176Z,14.30
2018-07-24T23:11:39.275Z,14.33
2018-07-24T23:14:07.688Z,13.93
2018-07-24T23:16:36.195Z,12.60
2018-07-24T23:19:04.680Z,14.30
2018-07-24T23:21:33.201Z,14.23
2018-07-24T23:24:01.706Z,13.07
2018-07-24T23:26:30.195Z,13.87
2018-07-24T23:28:58.624Z,14.03
2018-07-24T23:31:27.198Z,15.17
2018-07-24T23:33:55.663Z,15.73
2018-07-24T23:36:24.085Z,14.50
2018-07-24T23:38:52.623Z,12.20
2018-07-24T23:41:21.064Z,13.13
2018-07-24T23:43:49.515Z,13.63
2018-07-24T23:46:18.099Z,12.87
2018-07-24T23:48:46.577Z,11.43
2018-07-24T23:51:14.814Z,12.47
2018-07-24T23:53:43.274Z,15.13
2018-07-24T23:56:11.691Z,11.27
2018-07-24T23:58:40.172Z,13.57
